Latest Weather Observations for Lochington

IDQ60801

Issued at 8:35 am EST Tuesday 21 October 2014 (issued every 30 minutes, with the page automatically refreshed every 10 minutes)

About weather observations | Map of weather stations | Latest weather observations for QLD | Other Formats
Station Details ID: 035139 Name: LOCHINGTON Lat: -23.94 Lon: 147.53 Height: 267.19 m
Data from the previous 72 hours. | See also: Recent months at Lochington
Date/Time
EST
Temp
°C
App
Temp
°C
Dew
Point
Rel
Hum
%
Delta-T
°C
Wind Press
QNH
hPa
Press
MSL
hPa
Rain
since 9 am
mm
Dir
 
Spd
km/h
Gust
km/h
Spd
kts
Gust
kts
21/08:30am 21.9 19.1 11.3 51 5.9 E 17 24 9 13 1025.5 1024.2 0.0
21/08:00am 21.1 19.1 11.4 54 5.4 ESE 13 28 7 15 1025.4 1024.1 0.0
21/07:30am 20.1 18.5 11.6 58 4.8 E 11 17 6 9 1025.2 1023.9 0.0
21/07:00am 18.6 17.2 10.9 61 4.2 ESE 9 15 5 8 1025.0 1023.7 0.0
21/06:30am 17.1 16.7 11.2 68 3.2 SE 4 6 2 3 1024.7 1023.4 0.0
21/06:00am 15.2 15.3 10.0 71 2.7 ESE 0 4 0 2 1024.3 1022.9 0.0
21/05:30am 15.8 14.7 10.1 69 3.0 ENE 6 7 3 4 1023.8 1022.5 0.0
21/05:00am 15.1 13.8 9.2 68 3.1 E 6 6 3 3 1023.5 1022.2 0.0
21/04:30am 15.5 14.1 9.4 67 3.2 E 7 9 4 5 1023.1 1021.8 0.0
21/04:00am 16.0 14.7 9.9 67 3.2 E 7 9 4 5 1023.0 1021.7 0.0
21/03:30am 16.6 15.6 11.1 70 3.0 E 7 9 4 5 1022.8 1021.5 0.0
21/03:00am 17.9 16.8 12.1 69 3.2 ENE 9 15 5 8 1022.6 1021.3 0.0
21/02:30am 18.3 16.8 11.8 66 3.6 ENE 11 15 6 8 1022.4 1021.1 0.0
21/02:00am 18.5 17.3 11.6 64 3.8 ENE 9 15 5 8 1022.2 1020.9 0.0
21/01:30am 18.8 17.4 10.9 60 4.3 NE 9 17 5 9 1022.0 1020.7 0.0
21/01:00am 19.3 17.8 10.6 57 4.7 NE 9 13 5 7 1022.2 1020.9 0.0
21/12:30am 20.1 17.7 9.9 52 5.5 NE 13 19 7 10 1022.3 1021.0 0.0
21/12:00am 21.0 18.1 9.6 48 6.2 NE 15 24 8 13 1022.6 1021.3 0.0
 
Date/Time
EST
Temp
°C
App
Temp
°C
Dew
Point
Rel
Hum
%
Delta-T
°C
Wind Press
QNH
hPa
Press
MSL
hPa
Rain
since 9 am
mm
Dir
 
Spd
km/h
Gust
km/h
Spd
kts
Gust
kts
20/11:30pm 21.8 18.9 8.3 42 7.2 NE 13 22 7 12 1022.4 1021.1 0.0
20/11:00pm 21.7 18.3 6.0 36 8.0 ENE 13 17 7 9 1022.0 1020.7 0.0
20/10:30pm 19.8 18.5 5.8 40 7.0 E 2 4 1 2 1021.4 1020.1 0.0
20/10:00pm 21.5 19.7 5.4 35 8.1 E 4 4 2 2 1021.6 1020.3 0.0
20/09:30pm 22.8 20.6 5.3 32 8.8 E 6 6 3 3 1021.5 1020.2 0.0
20/09:00pm 23.6 21.4 5.5 31 9.2 E 6 9 3 5 1021.3 1020.0 0.0
20/08:30pm 23.8 22.0 5.2 30 9.5 E 4 6 2 3 1020.9 1019.5 0.0
20/08:00pm 24.6 22.3 4.9 28 10.0 E 6 7 3 4 1020.6 1019.2 0.0
20/07:30pm 25.7 22.9 5.3 27 10.5 ENE 9 11 5 6 1020.3 1018.9 0.0
20/07:00pm 25.1 22.2 4.8 27 10.3 E 9 11 5 6 1019.8 1018.5 0.0
20/06:30pm 26.3 22.9 4.1 24 11.3 E 11 15 6 8 1019.5 1018.2 0.0
20/06:00pm 27.8 24.5 4.8 23 11.9 ESE 11 17 6 9 1019.3 1018.0 0.0
20/05:30pm 29.2 25.1 4.6 21 12.8 ESE 15 22 8 12 1018.9 1017.6 0.0
20/05:00pm 29.7 24.7 3.6 19 13.4 SE 19 28 10 15 1018.7 1017.4 0.0
20/04:30pm 30.3 26.5 4.1 19 13.6 ESE 13 24 7 13 1018.7 1017.4 0.0
20/04:00pm 30.0 25.2 4.6 20 13.3 E 19 30 10 16 1018.6 1017.3 0.0
20/03:30pm 30.2 27.4 6.8 23 12.7 E 11 22 6 12 1018.7 1017.4 0.0
20/03:00pm 29.6 24.7 6.9 24 12.3 ESE 22 28 12 15 1019.0 1017.7 0.0
20/02:30pm 29.7 25.8 7.0 24 12.3 E 17 37 9 20 1019.3 1018.0 0.0
20/02:00pm 29.5 26.7 8.5 27 11.7 E 13 26 7 14 1019.7 1018.4 0.0
20/01:30pm 29.1 26.1 9.3 29 11.1 E 15 26 8 14 1020.5 1019.1 0.0
20/01:00pm 28.5 25.8 10.2 32 10.4 ESE 15 24 8 13 1021.1 1019.8 0.0
20/12:30pm 28.3 25.6 10.5 33 10.2 E 15 24 8 13 1021.8 1020.5 0.0
20/12:00pm 27.1 24.8 10.3 35 9.5 E 13 24 7 13 1022.5 1021.2 0.0
20/11:30am 26.3 24.7 11.6 40 8.5 E 11 22 6 12 1023.1 1021.8 0.0
20/11:00am 25.4 24.5 12.6 45 7.5 SE 9 19 5 10 1023.5 1022.2 0.0
20/10:30am 24.1 22.2 11.8 46 7.0 ESE 13 22 7 12 1024.2 1022.8 0.0
20/10:00am 23.6 21.9 12.3 49 6.5 ESE 13 22 7 12 1024.7 1023.4 0.0
20/09:30am 22.8 21.4 12.1 51 6.1 SE 11 15 6 8 1025.1 1023.8 0.0
20/09:00am 21.9 20.8 11.9 53 5.7 E 9 20 5 11 1025.2 1023.9 0.0
20/08:30am 21.6 19.8 12.2 55 5.4 E 13 22 7 12 1025.0 1023.7 0.0
20/08:00am 21.2 19.9 12.6 58 4.9 NE 11 19 6 10 1024.8 1023.5 0.0
20/07:30am 19.5 17.7 12.0 62 4.2 NE 13 20 7 11 1024.8 1023.5 0.0
20/07:00am 18.6 17.8 11.7 64 3.8 NE 7 17 4 9 1024.6 1023.3 0.0
20/06:30am 17.2 16.9 11.5 69 3.1 E 4 9 2 5 1024.4 1023.0 0.0
20/06:00am 15.3 14.8 10.7 74 2.5 E 4 6 2 3 1024.1 1022.7 0.0
20/05:30am 15.5 14.4 10.7 73 2.6 ENE 7 9 4 5 1023.8 1022.5 0.0
20/05:00am 16.2 15.1 10.7 70 3.0 ENE 7 9 4 5 1023.7 1022.4 0.0
20/04:30am 16.1 14.6 10.4 69 3.1 ENE 9 11 5 6 1023.6 1022.3 0.0
20/04:00am 16.4 14.9 10.7 69 3.1 ENE 9 11 5 6 1023.5 1022.2 0.0
20/03:30am 15.8 14.7 10.1 69 3.0 E 6 7 3 4 1023.8 1022.5 0.0
20/03:00am 16.1 16.2 10.2 68 3.1 CALM 0 0 0 0 1023.7 1022.4 0.0
20/02:30am 17.2 17.4 10.6 65 3.6 CALM 0 2 0 1 1023.7 1022.4 0.0
20/02:00am 17.4 16.2 10.3 63 3.8 NE 7 11 4 6 1023.4 1022.1 0.0
20/01:30am 18.6 16.4 10.7 60 4.3 NE 13 19 7 10 1023.3 1022.0 0.0
20/01:00am 19.0 16.4 10.6 58 4.6 NE 15 22 8 12 1023.4 1022.1 0.0
20/12:30am 19.5 17.5 10.2 55 5.1 NE 11 17 6 9 1023.3 1022.0 0.0
20/12:00am 19.8 18.1 9.7 52 5.4 ENE 9 13 5 7 1023.4 1022.1 0.0
 
Date/Time
EST
Temp
°C
App
Temp
°C
Dew
Point
Rel
Hum
%
Delta-T
°C
Wind Press
QNH
hPa
Press
MSL
hPa
Rain
since 9 am
mm
Dir
 
Spd
km/h
Gust
km/h
Spd
kts
Gust
kts
19/11:30pm 20.6 18.8 9.5 49 6.0 ENE 9 15 5 8 1023.2 1021.9 0.0
19/11:00pm 21.4 18.4 9.3 46 6.5 NE 15 26 8 14 1022.9 1021.6 0.0
19/10:30pm 20.9 19.2 8.5 45 6.6 NE 7 13 4 7 1022.9 1021.6 0.0
19/10:00pm 22.0 19.8 7.8 40 7.5 NE 9 11 5 6 1022.8 1021.5 0.0
19/09:30pm 22.0 19.9 8.2 41 7.3 NE 9 13 5 7 1022.6 1021.3 0.0
19/09:00pm 21.9 19.8 8.4 42 7.2 NE 9 15 5 8 1022.5 1021.2 0.0
19/08:30pm 21.9 20.7 8.1 41 7.3 SE 4 4 2 2 1022.1 1020.8 0.0
19/08:00pm 22.6 20.8 8.0 39 7.7 E 7 7 4 4 1021.9 1020.6 0.0
19/07:30pm 23.1 21.4 7.6 37 8.2 ESE 6 9 3 5 1021.6 1020.3 0.0
19/07:00pm 23.9 22.2 7.5 35 8.7 ESE 6 7 3 4 1021.3 1020.0 0.0
19/06:30pm 25.3 22.6 7.4 32 9.6 ESE 11 15 6 8 1020.9 1019.5 0.0
19/06:00pm 26.9 23.4 7.4 29 10.5 ESE 15 24 8 13 1020.7 1019.3 0.0
19/05:30pm 27.6 23.3 6.9 27 11.1 E 19 26 10 14 1020.4 1019.0 0.0
19/05:00pm 28.5 25.2 6.6 25 11.7 E 13 24 7 13 1020.2 1018.8 0.0
19/04:30pm 28.9 25.5 7.5 26 11.7 ESE 15 28 8 15 1020.1 1018.7 0.0
19/04:00pm 29.0 26.0 7.6 26 11.7 ESE 13 24 7 13 1019.8 1018.5 0.0
19/03:30pm 29.3 26.3 7.8 26 11.8 ESE 13 30 7 16 1019.9 1018.6 0.0
19/03:00pm 28.5 24.7 7.7 27 11.3 ESE 17 26 9 14 1020.3 1018.9 0.0
19/02:30pm 28.8 25.7 7.4 26 11.7 ENE 13 24 7 13 1020.6 1019.2 0.0
19/02:00pm 28.8 24.7 7.9 27 11.4 SE 19 30 10 16 1021.0 1019.6 0.0
19/01:30pm 28.3 24.8 8.6 29 10.9 ENE 17 26 9 14 1021.5 1020.2 0.0
19/01:00pm 28.3 25.3 9.1 30 10.7 E 15 33 8 18 1022.0 1020.7 0.0
19/12:30pm 28.0 24.8 9.8 32 10.3 E 17 24 9 13 1022.6 1021.3 0.0
19/12:00pm 27.0 23.0 8.4 31 10.2 E 19 37 10 20 1023.1 1021.8 0.0
19/11:30am 26.7 23.9 8.6 32 9.9 E 13 24 7 13 1023.6 1022.3 0.0
19/11:00am 25.8 24.1 10.0 37 8.8 ENE 9 22 5 12 1024.2 1022.8 0.0
19/10:30am 24.6 23.5 10.5 41 7.9 E 7 17 4 9 1024.7 1023.4 0.0
19/10:00am 23.1 21.1 10.2 44 7.1 ENE 11 17 6 9 1025.2 1023.9 0.0
19/09:30am 23.3 22.0 11.4 47 6.7 E 9 15 5 8 1025.6 1024.3 0.0
19/09:00am 23.0 21.9 12.0 50 6.3 E 9 22 5 12 1025.8 1024.5 0.0
19/08:30am 22.0 20.2 12.0 53 5.7 E 13 20 7 11 1025.9 1024.6 0.0
19/08:00am 21.4 18.9 12.3 56 5.2 E 17 28 9 15 1025.9 1024.6 0.0
19/07:30am 20.4 18.4 12.6 61 4.5 E 15 24 8 13 1025.9 1024.6 0.0
19/07:00am 19.5 17.5 12.8 65 3.8 ENE 15 20 8 11 1025.6 1024.3 0.0
19/06:30am 18.1 17.6 12.5 70 3.2 NE 7 11 4 6 1025.1 1023.8 0.0
19/06:00am 16.7 16.5 11.8 73 2.7 NE 4 6 2 3 1024.6 1023.3 0.0
19/05:30am 16.9 17.0 11.4 70 3.0 ENE 2 4 1 2 1024.3 1022.9 0.0
19/05:00am 16.4 16.2 10.5 68 3.2 ESE 2 4 1 2 1023.9 1022.6 0.0
19/04:30am 16.6 16.0 10.5 67 3.3 E 4 6 2 3 1023.7 1022.4 0.0
19/04:00am 16.9 15.9 10.3 65 3.5 E 6 7 3 4 1023.6 1022.3 0.0
19/03:30am 17.6 16.5 10.5 63 3.8 E 7 7 4 4 1023.4 1022.1 0.0
19/03:00am 17.8 16.7 10.7 63 3.8 ENE 7 9 4 5 1023.4 1022.1 0.0
19/02:30am 17.8 16.6 10.2 61 4.1 ENE 7 13 4 7 1023.3 1022.0 0.0
19/02:00am 18.4 17.0 9.7 57 4.6 NE 7 11 4 6 1023.1 1021.8 0.0
19/01:30am 18.5 16.5 8.5 52 5.2 NE 9 17 5 9 1023.0 1021.7 0.0
19/01:00am 18.9 16.6 7.4 47 5.9 NE 9 13 5 7 1023.1 1021.8 0.0
19/12:30am 19.9 17.0 6.6 42 6.8 NE 11 19 6 10 1023.0 1021.7 0.0
19/12:00am 20.5 17.1 5.7 38 7.4 ENE 13 22 7 12 1022.8 1021.5 0.0
 
Date/Time
EST
Temp
°C
App
Temp
°C
Dew
Point
Rel
Hum
%
Delta-T
°C
Wind Press
QNH
hPa
Press
MSL
hPa
Rain
since 9 am
mm
Dir
 
Spd
km/h
Gust
km/h
Spd
kts
Gust
kts
18/11:30pm 20.9 17.5 6.1 38 7.5 ENE 13 22 7 12 1022.7 1021.4 0.0
18/11:00pm 21.3 18.6 7.2 40 7.3 ENE 11 20 6 11 1022.7 1021.4 0.0
18/10:30pm 21.3 19.1 7.9 42 7.1 NE 9 15 5 8 1022.5 1021.2 0.0
18/10:00pm 21.5 18.5 6.2 37 7.8 ENE 11 17 6 9 1022.4 1021.1 0.0
18/09:30pm 22.2 18.7 5.6 34 8.4 ENE 13 22 7 12 1022.2 1020.9 0.0
18/09:00pm 21.1 18.9 5.1 35 8.0 E 6 7 3 4 1021.9 1020.6 0.0
18/08:30pm 21.8 19.0 5.3 34 8.3 E 9 9 5 5 1021.6 1020.3 0.0
18/08:00pm 22.1 19.7 5.1 33 8.5 E 7 9 4 5 1021.4 1020.1 0.0
18/07:30pm 22.5 20.0 4.5 31 9.0 E 7 9 4 5 1021.0 1019.6 0.0
18/07:00pm 23.6 21.1 4.5 29 9.6 E 7 7 4 4 1020.7 1019.3 0.0
18/06:30pm 24.5 21.9 4.3 27 10.2 E 7 9 4 5 1020.3 1018.9 0.0
18/06:00pm 27.0 23.7 4.7 24 11.4 ESE 11 15 6 8 1019.6 1018.3 0.0
18/05:30pm 28.0 25.5 5.0 23 12.0 ESE 7 15 4 8 1019.2 1017.9 0.0
18/05:00pm 28.7 26.2 4.9 22 12.4 ESE 7 13 4 7 1018.8 1017.5 0.0
18/04:30pm 29.2 26.2 6.0 23 12.4 ESE 11 17 6 9 1018.6 1017.3 0.0
18/04:00pm 28.8 26.0 2.9 19 13.0 E 7 15 4 8 1018.6 1017.3 0.0
18/03:30pm 29.6 25.9 4.3 20 13.1 SSE 13 37 7 20 1018.7 1017.4 0.0
18/03:00pm 29.5 25.8 4.2 20 13.1 ESE 13 20 7 11 1019.0 1017.7 0.0
18/02:30pm 28.5 25.0 3.4 20 12.7 S 11 19 6 10 1019.2 1017.9 0.0
18/02:00pm 28.5 25.0 3.4 20 12.7 E 11 19 6 10 1019.6 1018.3 0.0
18/01:30pm 28.5 26.0 4.7 22 12.4 E 7 15 4 8 1020.1 1018.7 0.0
18/01:00pm 28.0 24.7 4.3 22 12.2 SE 11 20 6 11 1020.6 1019.2 0.0
18/12:30pm 27.4 23.1 5.1 24 11.6 ESE 17 26 9 14 1021.3 1020.0 0.0
18/12:00pm 28.0 24.8 6.7 26 11.4 E 13 26 7 14 1021.9 1020.6 0.0
18/11:30am 26.8 24.1 7.3 29 10.5 E 11 20 6 11 1022.3 1021.0 0.0
18/11:00am 26.5 23.6 6.5 28 10.6 ENE 11 26 6 14 1022.8 1021.5 0.0
18/10:30am 25.7 22.6 7.3 31 9.8 ENE 13 19 7 10 1023.2 1021.9 0.0
18/10:00am 25.4 23.0 8.8 35 9.1 E 11 19 6 10 1023.5 1022.2 0.0
18/09:30am 24.4 22.3 9.6 39 8.2 E 11 19 6 10 1023.7 1022.4 0.0
18/09:00am 23.5 21.6 10.6 44 7.2 ENE 11 20 6 11 1023.7 1022.4 0.0

Other Formats:

Comma delimited format used in spreadsheet applications
http://www.bom.gov.au/fwo/IDQ60801/IDQ60801.94399.axf

JavaScript Object Notation format (JSON) in row-major order
http://www.bom.gov.au/fwo/IDQ60801/IDQ60801.94399.json